Time;durP1;ratioP1;P1;durP2;ratioP2;P2;SDS_P1;SDS_P2;PMS_P1;PMS_P2;Temp;Humidity;BMP_temperature;BMP_pressure;BME280_temperature;BME280_humidity;BME280_pressure;Samples;Min_cycle;Max_cycle;Signal;HPM_P1;HPM_P2
2023/05/20 00:00:38;;;;;;;9.80;7.53;;;;;;;13.98;68.82;98528.09;5020575;28;20041;-78
2023/05/20 00:03:04;;;;;;;8.05;7.22;;;;;;;13.80;68.95;98526.59;5015813;28;20034;-78
2023/05/20 00:05:29;;;;;;;8.50;7.57;;;;;;;13.78;69.11;98523.34;5010562;28;20108;-78
2023/05/20 00:07:55;;;;;;;9.52;7.85;;;;;;;13.74;69.25;98515.97;5026098;28;20068;-78
2023/05/20 00:10:20;;;;;;;8.70;7.65;;;;;;;13.85;69.58;98523.94;5031343;28;20029;-78
2023/05/20 00:12:45;;;;;;;8.13;7.43;;;;;;;13.83;69.55;98520.69;5016596;28;20040;-77
2023/05/20 00:15:11;;;;;;;9.05;8.15;;;;;;;13.69;69.63;98519.47;5012065;28;20087;-77
2023/05/20 00:17:36;;;;;;;9.20;8.02;;;;;;;13.77;69.93;98520.88;5033258;28;20037;-78
2023/05/20 00:20:04;;;;;;;9.43;8.43;;;;;;;13.81;69.44;98522.81;5033291;28;20187;-78
2023/05/20 00:22:29;;;;;;;10.07;9.07;;;;;;;13.75;69.80;98502.19;5037531;28;20038;-78
2023/05/20 00:24:55;;;;;;;8.93;8.02;;;;;;;13.84;69.35;98522.28;5035880;28;20026;-78
2023/05/20 00:27:22;;;;;;;9.65;8.52;;;;;;;13.67;70.58;98509.97;5014539;28;20037;-79
2023/05/20 00:29:47;;;;;;;10.50;8.85;;;;;;;13.80;69.23;98510.34;5019253;28;20028;-79
2023/05/20 00:32:13;;;;;;;9.52;8.65;;;;;;;13.74;69.62;98502.44;5035557;28;20491;-78
2023/05/20 00:34:38;;;;;;;10.18;9.13;;;;;;;13.81;69.66;98517.41;5032819;28;20061;-77
2023/05/20 00:37:04;;;;;;;9.68;8.80;;;;;;;13.82;69.32;98502.78;5027035;28;20064;-78
2023/05/20 00:39:29;;;;;;;9.38;8.50;;;;;;;13.78;70.16;98509.78;5034056;28;20025;-78
2023/05/20 00:41:59;;;;;;;9.18;8.30;;;;;;;13.75;70.26;98501.34;5044176;28;20037;-76
2023/05/20 00:44:25;;;;;;;10.10;9.13;;;;;;;13.81;69.89;98511.19;5036445;28;20407;-76
2023/05/20 00:46:51;;;;;;;10.27;9.23;;;;;;;13.93;70.01;98508.28;5045731;28;20025;-77
2023/05/20 00:49:17;;;;;;;9.55;8.60;;;;;;;13.81;69.86;98506.59;5029158;28;20080;-76
2023/05/20 00:51:42;;;;;;;11.90;9.32;;;;;;;13.98;69.11;98505.63;5021246;28;20022;-77
2023/05/20 00:54:07;;;;;;;10.75;9.30;;;;;;;13.81;70.23;98501.16;5020662;28;20044;-76
2023/05/20 00:56:33;;;;;;;10.88;9.75;;;;;;;13.88;69.99;98492.00;5015695;28;20133;-75
2023/05/20 00:58:58;;;;;;;9.75;8.90;;;;;;;13.74;69.97;98489.75;5015732;28;20033;-76
2023/05/20 01:01:23;;;;;;;11.25;9.02;;;;;;;13.85;69.73;98490.63;5020071;28;20034;-76
2023/05/20 01:03:50;;;;;;;10.27;9.15;;;;;;;13.93;69.20;98487.47;5045428;28;20498;-76
2023/05/20 01:06:15;;;;;;;10.15;9.15;;;;;;;13.99;69.50;98496.41;5032247;28;20629;-77
2023/05/20 01:08:41;;;;;;;9.88;8.88;;;;;;;13.68;70.19;98493.44;5032201;28;20034;-76
2023/05/20 01:11:11;;;;;;;10.82;9.82;;;;;;;13.84;70.06;98495.22;5020273;28;20026;-76
2023/05/20 01:13:44;;;;;;;11.05;10.07;;;;;;;13.74;70.49;98484.31;5011730;28;20034;-78
2023/05/20 01:20:00;;;;;;;11.30;10.32;;;;;;;13.59;71.28;98470.63;4978707;28;20070;-78
2023/05/20 01:22:26;;;;;;;12.00;11.00;;;;;;;13.65;71.08;98483.13;5039294;28;20112;-78
2023/05/20 01:24:52;;;;;;;11.23;10.15;;;;;;;13.77;70.31;98478.38;4999579;28;20034;-78
2023/05/20 01:27:21;;;;;;;11.18;10.07;;;;;;;13.82;70.41;98478.41;4983284;28;20130;-78
2023/05/20 01:29:49;;;;;;;12.75;11.45;;;;;;;13.76;70.28;98457.81;4997065;28;20017;-77
2023/05/20 01:33:06;;;;;;;12.43;11.25;;;;;;;13.56;71.51;98473.06;5003771;28;20050;-78
2023/05/20 01:40:35;;;;;;;13.40;12.15;;;;;;;13.64;71.56;98461.75;5018883;28;20060;-78
2023/05/20 01:43:21;;;;;;;13.43;12.32;;;;;;;13.57;71.69;98459.25;5020385;28;20042;-78
2023/05/20 01:45:47;;;;;;;14.10;12.90;;;;;;;13.82;71.23;98464.88;5002928;28;20036;-78
2023/05/20 01:48:13;;;;;;;13.70;12.40;;;;;;;13.56;72.16;98460.31;4998394;28;20124;-77
2023/05/20 01:50:39;;;;;;;14.98;13.88;;;;;;;13.56;71.83;98460.31;4970758;28;20535;-78
2023/05/20 01:53:07;;;;;;;15.40;14.20;;;;;;;13.58;71.38;98466.28;4978550;28;20125;-77
2023/05/20 01:55:33;;;;;;;16.00;14.70;;;;;;;13.59;71.55;98459.81;4961862;28;20034;-76
2023/05/20 01:57:59;;;;;;;16.88;15.43;;;;;;;13.44;73.06;98459.66;4993977;28;20042;-77
2023/05/20 02:00:24;;;;;;;16.17;14.77;;;;;;;13.47;72.41;98459.16;4994135;28;20393;-77
2023/05/20 02:02:49;;;;;;;15.93;14.52;;;;;;;13.56;71.56;98465.72;4977828;28;20404;-77
2023/05/20 02:05:15;;;;;;;15.23;13.75;;;;;;;13.54;71.39;98457.06;4993689;28;20496;-76
2023/05/20 02:07:42;;;;;;;15.48;14.23;;;;;;;13.52;72.14;98459.22;4977499;28;20034;-76
2023/05/20 02:10:08;;;;;;;15.13;14.02;;;;;;;13.56;72.23;98457.63;4961403;28;20113;-76
2023/05/20 02:12:33;;;;;;;14.32;13.13;;;;;;;13.63;71.46;98450.09;4996948;28;20041;-76
2023/05/20 02:14:58;;;;;;;15.25;13.95;;;;;;;13.52;72.28;98453.78;5141267;22;20047;-75
2023/05/20 02:17:25;;;;;;;16.73;15.32;;;;;;;13.62;71.64;98458.50;4975316;28;20531;-76
2023/05/20 02:19:50;;;;;;;15.30;14.20;;;;;;;13.60;72.20;98456.06;4972636;28;20029;-76
2023/05/20 02:22:15;;;;;;;16.25;14.95;;;;;;;13.62;71.62;98470.13;5012053;28;20045;-75
2023/05/20 02:24:42;;;;;;;16.95;15.63;;;;;;;13.78;71.09;98469.19;5011898;28;20021;-75
2023/05/20 02:27:08;;;;;;;16.65;15.23;;;;;;;13.73;71.49;98454.78;5012105;28;20070;-77
2023/05/20 02:29:33;;;;;;;15.15;13.88;;;;;;;13.74;71.32;98459.97;4979997;28;20025;-75
2023/05/20 02:31:58;;;;;;;15.60;14.38;;;;;;;13.77;70.83;98448.59;4995857;28;20479;-76
2023/05/20 02:34:24;;;;;;;15.38;14.18;;;;;;;13.71;71.40;98446.13;4995499;28;20076;-76
2023/05/20 02:36:51;;;;;;;14.85;13.65;;;;;;;13.79;71.79;98454.56;4996390;28;20061;-78
2023/05/20 02:39:17;;;;;;;16.10;14.82;;;;;;;13.66;71.48;98449.59;4976514;28;20555;-76
2023/05/20 02:41:42;;;;;;;16.00;14.57;;;;;;;13.76;71.86;98443.44;4972869;28;20038;-77
2023/05/20 02:44:08;;;;;;;16.55;14.95;;;;;;;13.64;72.05;98451.75;4968989;28;20022;-76
2023/05/20 03:19:20;;;;;;;18.10;16.60;;;;;;;13.56;72.57;98454.91;5040958;23;20176;-77
2023/05/20 03:21:47;;;;;;;18.67;17.17;;;;;;;13.68;71.95;98463.69;5002989;28;20067;-77
2023/05/20 03:24:12;;;;;;;19.92;18.02;;;;;;;13.63;71.98;98458.22;4987390;28;20026;-77
2023/05/20 03:26:41;;;;;;;18.85;17.23;;;;;;;13.47;72.52;98461.88;4987440;28;20030;-77
2023/05/20 03:29:09;;;;;;;18.67;17.27;;;;;;;13.62;72.62;98456.59;4987874;28;20025;-77
2023/05/20 03:31:34;;;;;;;20.75;19.20;;;;;;;13.58;72.62;98446.56;4986556;28;20030;-77
2023/05/20 03:34:00;;;;;;;21.30;19.70;;;;;;;13.61;72.18;98446.84;4969805;28;20018;-77
2023/05/20 03:36:25;;;;;;;22.25;20.55;;;;;;;13.62;72.05;98448.50;5001216;28;20040;-77
2023/05/20 03:38:51;;;;;;;21.85;19.98;;;;;;;13.67;72.47;98456.66;4986155;28;20053;-77
2023/05/20 03:41:16;;;;;;;22.80;20.92;;;;;;;13.60;72.46;98456.06;4985187;28;20049;-77
2023/05/20 03:43:41;;;;;;;21.08;19.38;;;;;;;13.48;72.69;98449.16;4968694;28;20032;-77
2023/05/20 03:46:07;;;;;;;22.23;20.33;;;;;;;13.61;72.25;98457.66;4968644;28;20096;-77
2023/05/20 03:48:33;;;;;;;21.35;19.67;;;;;;;13.64;71.95;98462.56;4986003;28;20033;-77
2023/05/20 03:51:00;;;;;;;23.23;21.42;;;;;;;13.61;72.21;98460.38;5002410;28;20034;-79
2023/05/20 03:53:26;;;;;;;21.52;19.73;;;;;;;13.45;72.42;98452.38;4983209;28;20026;-76
2023/05/20 03:55:51;;;;;;;22.85;21.05;;;;;;;13.63;72.53;98460.94;4977665;28;20104;-76
2023/05/20 03:58:19;;;;;;;24.38;22.45;;;;;;;13.52;72.72;98459.22;4983021;28;20503;-77
2023/05/20 04:00:46;;;;;;;25.30;23.27;;;;;;;13.42;73.33;98464.50;4985237;28;20116;-78
2023/05/20 04:03:11;;;;;;;25.08;23.17;;;;;;;13.41;73.06;98457.50;4985716;28;20112;-77
2023/05/20 04:05:38;;;;;;;27.92;25.80;;;;;;;13.44;72.96;98465.06;5020022;28;20403;-77
2023/05/20 04:08:12;;;;;;;25.52;23.58;;;;;;;13.36;73.69;98465.56;4990315;28;20049;-78
2023/05/20 04:10:41;;;;;;;27.42;25.42;;;;;;;13.37;73.96;98472.56;4995883;28;20033;-78
2023/05/20 04:13:07;;;;;;;27.70;25.20;;;;;;;13.43;73.24;98466.16;4987951;28;20168;-77
2023/05/20 04:16:43;;;;;;;26.23;24.38;;;;;;;13.49;72.96;98457.00;5100903;23;20518;-77
2023/05/20 04:23:49;;;;;;;28.85;26.73;;;;;;;13.24;74.07;98456.75;4987762;28;20132;-75
2023/05/20 04:26:15;;;;;;;30.13;27.85;;;;;;;13.16;74.53;98458.03;4975503;28;20145;-75
2023/05/20 04:28:40;;;;;;;30.67;28.25;;;;;;;13.20;74.00;98461.06;4994744;28;20053;-77
2023/05/20 04:31:06;;;;;;;30.40;28.20;;;;;;;13.22;74.62;98464.31;4987331;28;20026;-76
2023/05/20 04:33:37;;;;;;;32.30;30.00;;;;;;;13.27;74.51;98463.56;5002404;28;20018;-76
2023/05/20 04:36:05;;;;;;;32.45;30.05;;;;;;;13.30;73.93;98461.19;4983961;28;20038;-76
2023/05/20 04:38:31;;;;;;;32.83;30.42;;;;;;;13.13;75.32;98460.44;4969826;28;20033;-76
2023/05/20 04:40:59;;;;;;;36.67;34.15;;;;;;;13.12;75.36;98458.78;4972592;28;20030;-76
2023/05/20 04:43:25;;;;;;;36.28;33.70;;;;;;;13.38;74.47;98468.00;5012314;28;20083;-75
2023/05/20 04:45:52;;;;;;;37.97;35.47;;;;;;;13.20;74.89;98461.06;4996823;28;20044;-76
2023/05/20 04:48:19;;;;;;;40.17;37.45;;;;;;;13.43;74.37;98468.03;4972512;28;20033;-76
2023/05/20 04:50:47;;;;;;;38.80;36.00;;;;;;;13.14;75.10;98440.44;4986626;28;20038;-76
2023/05/20 04:53:12;;;;;;;41.22;38.45;;;;;;;13.31;75.06;98446.56;4974297;28;20018;-76
2023/05/20 04:55:38;;;;;;;40.80;38.00;;;;;;;13.50;74.31;98460.53;4989930;28;20095;-76
2023/05/20 04:58:04;;;;;;;37.60;35.20;;;;;;;13.77;73.49;98461.31;5024218;28;20022;-74
2023/05/20 05:00:30;;;;;;;39.67;37.15;;;;;;;13.73;73.72;98463.72;4981106;28;20049;-73
2023/05/20 05:02:55;;;;;;;40.25;37.40;;;;;;;13.64;73.79;98457.16;5007932;28;20041;-76
2023/05/20 05:05:20;;;;;;;37.72;35.15;;;;;;;13.61;74.57;98465.78;4973493;28;20042;-76
2023/05/20 05:07:46;;;;;;;34.55;31.95;;;;;;;13.95;72.55;98460.13;5006781;28;20358;-75
2023/05/20 05:10:11;;;;;;;35.78;33.00;;;;;;;13.88;73.98;98460.34;4990705;28;20125;-75
2023/05/20 05:12:37;;;;;;;32.00;29.77;;;;;;;13.95;72.43;98457.41;4968412;28;20476;-75
2023/05/20 05:15:03;;;;;;;33.00;30.60;;;;;;;14.09;72.50;98459.41;4996418;28;20026;-74
2023/05/20 05:17:28;;;;;;;33.70;31.20;;;;;;;14.18;73.10;98459.72;4983177;28;20026;-75
2023/05/20 05:19:55;;;;;;;34.20;31.60;;;;;;;14.10;72.89;98452.06;4998692;28;20042;-75
2023/05/20 05:22:20;;;;;;;32.20;29.42;;;;;;;13.97;73.38;98456.06;4983492;28;20113;-74
2023/05/20 05:24:48;;;;;;;30.20;28.00;;;;;;;14.42;72.15;98444.75;4993107;28;22143;-75
2023/05/20 05:27:14;;;;;;;32.92;30.48;;;;;;;14.49;72.52;98445.34;4976333;28;20610;-75
2023/05/20 05:29:39;;;;;;;29.85;27.52;;;;;;;14.82;70.47;98453.06;4982189;28;20034;-75
2023/05/20 05:32:05;;;;;;;28.02;25.83;;;;;;;14.86;70.85;98450.63;4982934;28;20026;-75
2023/05/20 05:34:30;;;;;;;26.48;24.38;;;;;;;14.73;70.13;98432.13;4998303;28;20101;-75
2023/05/20 05:36:56;;;;;;;26.90;24.60;;;;;;;14.14;71.54;98455.91;4988809;28;20542;-75
2023/05/20 05:39:21;;;;;;;30.63;28.23;;;;;;;14.41;72.58;98445.81;4976282;28;20489;-75
2023/05/20 05:41:47;;;;;;;28.92;26.60;;;;;;;14.29;72.36;98437.03;5011683;28;20401;-75
2023/05/20 05:44:13;;;;;;;32.25;29.52;;;;;;;14.29;71.88;98437.03;4998468;28;20038;-75
2023/05/20 05:46:39;;;;;;;30.27;27.85;;;;;;;14.35;72.18;98436.03;4988744;28;20113;-75
2023/05/20 05:49:05;;;;;;;30.63;28.20;;;;;;;14.77;70.47;98431.34;5002040;28;20121;-75
2023/05/20 05:51:31;;;;;;;30.55;27.95;;;;;;;14.71;70.86;98445.97;4992263;28;20424;-74
2023/05/20 05:53:57;;;;;;;26.38;23.90;;;;;;;14.35;71.27;98428.69;4986847;28;20041;-76
2023/05/20 05:56:22;;;;;;;25.92;23.63;;;;;;;14.32;71.49;98426.53;4995247;28;20539;-76
2023/05/20 05:58:47;;;;;;;27.75;25.45;;;;;;;14.70;70.49;98414.53;4977937;28;20042;-76
2023/05/20 06:01:14;;;;;;;27.25;25.05;;;;;;;14.68;70.88;98413.16;4997179;28;20032;-77
2023/05/20 06:03:39;;;;;;;25.33;23.30;;;;;;;14.88;69.93;98411.34;4975546;28;20121;-76
2023/05/20 06:06:05;;;;;;;22.10;20.02;;;;;;;15.15;68.64;98420.06;4988772;28;20433;-76
2023/05/20 06:08:31;;;;;;;20.92;19.05;;;;;;;15.43;67.89;98420.66;4988959;28;20057;-75
2023/05/20 06:10:57;;;;;;;20.25;18.45;;;;;;;15.60;67.59;98415.81;5001129;28;20371;-76
2023/05/20 06:13:22;;;;;;;20.25;18.25;;;;;;;15.84;66.59;98423.16;5018092;28;20064;-76
2023/05/20 06:15:49;;;;;;;19.00;17.27;;;;;;;15.84;66.76;98416.91;4994325;28;20030;-76
2023/05/20 06:18:15;;;;;;;19.60;17.65;;;;;;;15.93;67.18;98419.88;4990760;28;20038;-75
2023/05/20 06:20:41;;;;;;;18.17;16.27;;;;;;;15.77;66.50;98410.94;4988216;28;20388;-75
2023/05/20 06:23:06;;;;;;;18.48;16.67;;;;;;;15.95;67.16;98415.81;4994903;28;20068;-76
2023/05/20 06:25:52;;;;;;;17.97;16.33;;;;;;;15.84;66.40;98416.91;5010818;28;20556;-73
2023/05/20 06:28:19;;;;;;;17.92;16.23;;;;;;;15.82;66.97;98410.94;5004660;28;20424;-76
2023/05/20 06:30:44;;;;;;;17.63;15.93;;;;;;;15.57;67.30;98410.91;4975197;28;20037;-76
2023/05/20 06:33:10;;;;;;;17.27;15.60;;;;;;;15.56;67.12;98403.88;4988471;28;20034;-76
2023/05/20 06:35:35;;;;;;;17.65;15.85;;;;;;;15.70;66.95;98404.97;4991306;28;20026;-76
2023/05/20 06:38:02;;;;;;;17.95;16.08;;;;;;;15.97;67.16;98405.47;4988449;28;20177;-76
2023/05/20 06:40:28;;;;;;;17.40;15.70;;;;;;;16.05;65.99;98404.09;4985227;28;20113;-76
2023/05/20 06:42:53;;;;;;;17.35;15.50;;;;;;;16.13;65.59;98415.22;4971810;28;20134;-76
2023/05/20 06:45:39;;;;;;;18.98;15.57;;;;;;;15.95;66.28;98407.66;5014972;28;20068;-76
2023/05/20 06:48:20;;;;;;;15.52;13.93;;;;;;;16.20;65.02;98394.00;4977204;28;20030;-77
2023/05/20 06:50:45;;;;;;;27.25;16.73;;;;;;;16.30;67.09;98391.28;4964629;28;20042;-77
2023/05/20 06:53:10;;;;;;;32.05;20.50;;;;;;;16.00;66.48;98394.06;5025756;28;20064;-77
2023/05/20 06:55:37;;;;;;;17.77;15.32;;;;;;;15.96;66.49;98393.00;5005210;28;20046;-77
2023/05/20 06:58:02;;;;;;;18.88;16.15;;;;;;;16.14;66.22;98400.56;4981965;28;20064;-77
2023/05/20 07:00:28;;;;;;;16.27;14.57;;;;;;;16.13;65.75;98392.66;4994950;28;20034;-77
2023/05/20 07:02:54;;;;;;;16.13;14.52;;;;;;;16.41;65.17;98394.78;4989076;28;20161;-77
2023/05/20 07:05:19;;;;;;;15.40;13.52;;;;;;;16.54;64.46;98399.66;4981945;28;20038;-77
2023/05/20 07:07:45;;;;;;;15.55;13.82;;;;;;;16.70;64.12;98381.38;4993802;28;20116;-77
2023/05/20 07:10:10;;;;;;;49.13;28.27;;;;;;;16.38;66.52;98382.53;4995510;28;20037;-77
2023/05/20 07:12:35;;;;;;;18.17;14.65;;;;;;;16.35;65.27;98391.28;5013918;28;20411;-76
2023/05/20 07:15:01;;;;;;;17.67;15.18;;;;;;;16.27;65.71;98388.28;5003908;28;20061;-77
2023/05/20 07:17:28;;;;;;;16.33;14.57;;;;;;;16.21;65.37;98384.78;5010346;28;20492;-77
2023/05/20 07:19:54;;;;;;;16.23;14.52;;;;;;;16.17;65.20;98378.28;5024366;28;20073;-76
2023/05/20 07:22:20;;;;;;;16.65;14.82;;;;;;;16.34;65.43;98383.38;4997651;28;20029;-77
2023/05/20 07:25:11;;;;;;;16.60;14.27;;;;;;;16.28;64.22;98374.44;4990729;28;20133;-77
2023/05/20 07:27:37;;;;;;;16.10;13.80;;;;;;;16.31;64.33;98365.72;5006638;28;20113;-77
2023/05/20 07:30:03;;;;;;;15.95;13.60;;;;;;;16.91;64.37;98367.41;4978354;28;20063;-77
2023/05/20 07:32:30;;;;;;;14.75;13.07;;;;;;;16.88;63.99;98383.44;4992141;28;20094;-77
2023/05/20 07:34:55;;;;;;;16.20;13.80;;;;;;;17.23;62.48;98375.91;5003634;28;20026;-76
2023/05/20 07:37:21;;;;;;;14.73;12.57;;;;;;;17.08;62.01;98367.03;5007089;28;20034;-76
2023/05/20 07:39:46;;;;;;;16.45;12.60;;;;;;;17.74;61.90;98364.63;5010160;28;20102;-76
2023/05/20 07:42:12;;;;;;;14.73;13.23;;;;;;;17.73;62.47;98379.34;4975111;28;20466;-76
2023/05/20 07:44:41;;;;;;;18.13;13.43;;;;;;;17.35;61.81;98375.53;5000627;28;20026;-76
2023/05/20 07:47:06;;;;;;;14.38;12.52;;;;;;;17.50;61.50;98364.53;4997495;28;20076;-75
2023/05/20 07:49:32;;;;;;;16.30;12.82;;;;;;;17.54;60.80;98365.63;5008172;28;20457;-76
2023/05/20 07:51:58;;;;;;;12.63;11.27;;;;;;;17.91;60.66;98354.94;5007920;28;20065;-75
2023/05/20 07:54:23;;;;;;;13.13;11.73;;;;;;;18.03;59.59;98354.53;5003700;28;20022;-75
2023/05/20 07:56:51;;;;;;;15.30;12.38;;;;;;;17.37;61.15;98351.56;5011736;28;20076;-76
2023/05/20 07:59:17;;;;;;;14.88;11.63;;;;;;;17.83;60.46;98344.63;4992969;28;20060;-76
2023/05/20 08:01:45;;;;;;;16.60;12.73;;;;;;;17.83;62.03;98357.44;4988732;28;20038;-76
2023/05/20 08:04:13;;;;;;;15.63;12.27;;;;;;;17.73;61.19;98352.94;4991074;28;20117;-76
2023/05/20 08:06:40;;;;;;;13.98;11.95;;;;;;;17.85;59.82;98361.50;4984379;28;20112;-76
2023/05/20 08:09:08;;;;;;;16.95;11.57;;;;;;;18.00;59.73;98348.84;4998645;28;20589;-76
2023/05/20 08:11:38;;;;;;;15.70;12.45;;;;;;;18.03;60.31;98353.72;4994415;28;20034;-76
2023/05/20 08:14:05;;;;;;;13.38;11.60;;;;;;;17.93;60.09;98347.28;4974758;28;20034;-76
2023/05/20 08:16:36;;;;;;;14.55;12.00;;;;;;;17.82;59.81;98337.59;4982606;28;20040;-77
2023/05/20 08:19:02;;;;;;;20.20;12.48;;;;;;;17.68;60.10;98343.97;5003536;28;20029;-76
2023/05/20 08:21:27;;;;;;;13.20;11.27;;;;;;;17.89;60.51;98346.22;4994015;28;20113;-76
2023/05/20 08:23:52;;;;;;;15.40;11.93;;;;;;;18.07;59.45;98352.84;4980818;28;20475;-76
2023/05/20 08:26:18;;;;;;;14.85;11.80;;;;;;;18.15;58.59;98354.13;4993538;28;20041;-76
2023/05/20 08:28:43;;;;;;;15.02;12.13;;;;;;;18.01;58.58;98355.94;4980793;28;20034;-76
2023/05/20 08:31:09;;;;;;;13.23;11.45;;;;;;;18.02;58.27;98349.38;4987265;28;20064;-77
2023/05/20 08:33:35;;;;;;;14.93;11.80;;;;;;;18.49;59.09;98346.66;4977171;28;20126;-76
2023/05/20 08:36:00;;;;;;;14.23;12.45;;;;;;;18.32;60.43;98338.94;4993536;28;20400;-76
2023/05/20 08:38:27;;;;;;;13.95;11.30;;;;;;;18.43;58.63;98335.00;4990257;28;20038;-76
2023/05/20 08:40:54;;;;;;;18.25;13.82;;;;;;;18.48;58.86;98337.66;4990229;28;20694;-76
2023/05/20 08:43:19;;;;;;;13.02;11.20;;;;;;;18.95;58.16;98331.31;4999537;28;20076;-76
2023/05/20 08:45:46;;;;;;;14.75;11.13;;;;;;;18.77;57.34;98331.31;4977109;28;20018;-76
2023/05/20 08:48:15;;;;;;;12.48;11.15;;;;;;;18.27;57.91;98330.03;5028845;23;20050;-74
2023/05/20 08:50:41;;;;;;;16.67;11.20;;;;;;;18.60;58.69;98334.53;5019024;28;20399;-73
2023/05/20 08:53:06;;;;;;;15.10;11.75;;;;;;;18.55;58.69;98332.66;4995884;28;20038;-73
2023/05/20 08:55:48;;;;;;;13.85;11.45;;;;;;;18.27;57.92;98340.94;5012730;28;20154;-75
2023/05/20 08:58:14;;;;;;;12.35;11.05;;;;;;;18.60;58.13;98329.06;4996908;28;20042;-72
2023/05/20 09:00:40;;;;;;;13.52;10.68;;;;;;;18.92;57.57;98336.56;4960324;28;20030;-73
2023/05/20 09:03:06;;;;;;;12.65;10.82;;;;;;;18.98;56.07;98329.91;4993624;28;20448;-73
2023/05/20 09:05:32;;;;;;;14.63;11.07;;;;;;;18.97;57.49;98329.13;4976462;28;20065;-73
2023/05/20 09:08:05;;;;;;;13.93;11.90;;;;;;;19.26;56.59;98327.03;4993122;28;20510;-75
2023/05/20 09:10:32;;;;;;;17.42;11.77;;;;;;;18.98;57.39;98336.19;4992820;28;20496;-74
2023/05/20 09:13:00;;;;;;;12.77;11.27;;;;;;;19.12;56.84;98328.06;4992016;28;20042;-73
2023/05/20 09:15:25;;;;;;;12.18;10.90;;;;;;;19.04;56.98;98323.28;4992471;28;20431;-73
2023/05/20 09:17:51;;;;;;;15.77;12.02;;;;;;;19.34;55.84;98325.53;4992406;28;20030;-74
2023/05/20 09:20:16;;;;;;;12.85;11.27;;;;;;;19.27;57.18;98316.91;4992623;28;20046;-73
2023/05/20 09:22:41;;;;;;;14.13;11.27;;;;;;;19.71;56.83;98328.22;4992320;28;20034;-74
2023/05/20 09:25:08;;;;;;;14.20;11.05;;;;;;;19.56;56.06;98324.91;4993269;28;20057;-74
2023/05/20 09:27:33;;;;;;;13.05;11.80;;;;;;;19.71;55.20;98328.22;4976090;28;20521;-74
2023/05/20 09:29:59;;;;;;;12.80;10.88;;;;;;;19.33;56.46;98322.00;4992603;28;20129;-74
2023/05/20 09:32:27;;;;;;;12.82;10.77;;;;;;;19.89;55.69;98330.06;4992297;28;20097;-76
2023/05/20 09:34:52;;;;;;;12.52;11.23;;;;;;;19.33;56.34;98327.47;4960408;28;20035;-76
2023/05/20 09:37:20;;;;;;;14.20;11.20;;;;;;;19.65;55.87;98318.47;4992025;28;20085;-74
2023/05/20 09:40:05;;;;;;;14.68;11.25;;;;;;;19.66;54.71;98330.22;4979372;28;20029;-73
2023/05/20 09:42:37;;;;;;;12.38;11.07;;;;;;;19.69;55.35;98319.50;4998948;28;20108;-72
2023/05/20 09:45:04;;;;;;;12.32;11.02;;;;;;;19.73;54.25;98316.97;4991636;28;20039;-76
2023/05/20 09:47:30;;;;;;;12.73;10.82;;;;;;;20.07;53.43;98330.31;5005204;28;20116;-73
2023/05/20 09:49:56;;;;;;;11.68;10.48;;;;;;;20.44;52.95;98314.53;4995178;28;20125;-74
2023/05/20 09:52:21;;;;;;;12.27;10.13;;;;;;;19.76;54.22;98319.94;4981399;28;20109;-74
2023/05/20 09:54:47;;;;;;;11.00;9.85;;;;;;;20.02;53.44;98306.59;4991601;28;20039;-75
2023/05/20 09:57:12;;;;;;;15.00;10.63;;;;;;;20.27;53.36;98314.34;4991881;28;20018;-74
2023/05/20 09:59:39;;;;;;;11.50;10.00;;;;;;;20.27;53.32;98321.72;4976346;28;20117;-75
2023/05/20 10:02:05;;;;;;;12.98;11.02;;;;;;;20.20;53.56;98313.91;4975548;28;20070;-74
2023/05/20 10:04:32;;;;;;;12.63;11.02;;;;;;;20.60;53.46;98302.16;4991391;28;20137;-74
2023/05/20 10:07:21;;;;;;;12.80;10.30;;;;;;;20.44;52.79;98303.56;4991537;28;20687;-76
2023/05/20 10:10:21;;;;;;;14.90;10.65;;;;;;;20.70;53.31;98297.59;4992629;28;20451;-74
2023/05/20 10:13:20;;;;;;;12.63;10.18;;;;;;;21.12;53.73;98299.94;4992863;28;20090;-73
2023/05/20 10:16:14;;;;;;;11.38;9.70;;;;;;;21.51;51.35;98300.06;4992612;28;20040;-73
2023/05/20 10:18:54;;;;;;;10.77;9.48;;;;;;;21.32;50.23;98304.91;4991313;28;20057;-74
2023/05/20 10:21:24;;;;;;;11.38;9.00;;;;;;;22.03;47.53;98296.47;4959102;28;20038;-73
2023/05/20 10:23:50;;;;;;;12.45;9.30;;;;;;;21.69;47.88;98299.03;4975168;28;20034;-74
2023/05/20 10:26:16;;;;;;;13.45;10.52;;;;;;;21.52;49.72;98301.66;4990487;28;20476;-74
2023/05/20 10:28:42;;;;;;;12.02;10.63;;;;;;;21.33;50.38;98298.31;4975251;28;20062;-73
2023/05/20 10:31:20;;;;;;;15.90;10.20;;;;;;;21.12;50.76;98297.19;4974857;28;20244;-73
2023/05/20 10:33:46;;;;;;;11.45;10.25;;;;;;;21.17;51.40;98289.63;4991220;28;20046;-73
2023/05/20 10:36:22;;;;;;;12.15;10.35;;;;;;;21.01;51.34;98295.75;4975270;28;20145;-75
2023/05/20 10:38:55;;;;;;;11.30;9.90;;;;;;;21.52;51.43;98293.44;4991439;28;20037;-73
2023/05/20 10:41:23;;;;;;;13.15;9.77;;;;;;;21.59;49.47;98291.06;4971852;28;20038;-74
2023/05/20 10:43:58;;;;;;;12.55;10.32;;;;;;;20.80;51.24;98300.06;4994280;28;20028;-77
2023/05/20 10:46:24;;;;;;;11.73;10.52;;;;;;;21.96;50.10;98289.84;5009329;28;20029;-75
2023/05/20 10:48:49;;;;;;;10.63;9.52;;;;;;;20.79;50.82;98282.03;4983521;28;20034;-76
2023/05/20 10:51:15;;;;;;;11.57;10.23;;;;;;;21.11;50.69;98284.59;5010283;28;20403;-75
2023/05/20 10:53:44;;;;;;;12.10;10.52;;;;;;;20.84;51.60;98279.19;5017538;28;20486;-72
2023/05/20 10:56:17;;;;;;;13.40;11.00;;;;;;;21.10;51.63;98288.44;5011703;28;20069;-71
2023/05/20 10:58:43;;;;;;;12.57;10.93;;;;;;;21.75;50.20;98272.31;4998005;28;20045;-75
2023/05/20 11:01:09;;;;;;;13.77;11.25;;;;;;;21.66;49.08;98274.16;5004135;28;20030;-74
2023/05/20 11:03:35;;;;;;;12.82;10.25;;;;;;;22.03;48.49;98268.28;4990792;28;20034;-74
2023/05/20 11:06:00;;;;;;;11.30;10.10;;;;;;;21.93;47.60;98263.88;4981378;28;20757;-74
2023/05/20 11:08:31;;;;;;;12.80;10.60;;;;;;;21.74;48.89;98263.25;5017377;28;20510;-72
2023/05/20 11:10:57;;;;;;;11.85;10.20;;;;;;;21.79;49.38;98249.41;4997761;28;20038;-76
2023/05/20 11:13:22;;;;;;;12.45;10.13;;;;;;;21.53;50.86;98264.09;4994431;28;20034;-75
2023/05/20 11:15:48;;;;;;;11.93;9.52;;;;;;;22.18;49.07;98253.28;4987327;28;20030;-73
2023/05/20 11:18:14;;;;;;;13.50;10.25;;;;;;;22.69;48.53;98253.44;5004252;28;20022;-73
2023/05/20 11:20:40;;;;;;;10.32;9.25;;;;;;;22.83;47.68;98264.25;4994652;28;20080;-74
2023/05/20 11:23:07;;;;;;;11.50;9.65;;;;;;;22.14;48.05;98257.81;4977997;28;20391;-74
2023/05/20 11:25:32;;;;;;;11.15;9.40;;;;;;;22.26;47.12;98255.28;4994176;28;20044;-74
2023/05/20 11:27:58;;;;;;;12.35;10.18;;;;;;;22.80;48.03;98249.22;5011464;28;20394;-74
2023/05/20 11:30:24;;;;;;;11.02;9.10;;;;;;;23.28;46.81;98249.06;5011048;28;20041;-74
2023/05/20 11:32:57;;;;;;;10.75;9.32;;;;;;;22.84;45.86;98239.25;5012397;28;20021;-74
2023/05/20 11:35:23;;;;;;;10.73;9.50;;;;;;;22.41;47.69;98243.81;4995299;28;20034;-74
2023/05/20 11:38:06;;;;;;;10.70;9.30;;;;;;;22.41;48.01;98232.84;4996628;28;20483;-75
2023/05/20 11:40:32;;;;;;;10.52;8.90;;;;;;;22.72;46.24;98236.31;5027322;28;20442;-75
2023/05/20 11:43:02;;;;;;;9.73;8.68;;;;;;;22.64;45.28;98234.38;5015312;28;20726;-76
2023/05/20 11:45:46;;;;;;;12.57;9.25;;;;;;;22.32;47.29;98229.28;4998281;28;20026;-77
2023/05/20 11:48:14;;;;;;;10.68;8.90;;;;;;;23.13;46.05;98228.38;4990927;28;20038;-74
2023/05/20 11:50:41;;;;;;;10.20;9.20;;;;;;;23.38;44.32;98234.22;4994121;28;20105;-74
2023/05/20 11:53:13;;;;;;;10.27;9.25;;;;;;;22.45;46.49;98225.63;4985623;28;20038;-74
2023/05/20 11:55:55;;;;;;;10.23;9.02;;;;;;;23.29;45.25;98229.50;5024154;28;20482;-77
2023/05/20 11:58:25;;;;;;;9.93;8.93;;;;;;;23.33;44.99;98219.47;5020795;28;20057;-76
2023/05/20 12:00:51;;;;;;;10.75;8.90;;;;;;;23.79;44.65;98226.16;5009060;28;20040;-76
2023/05/20 12:03:17;;;;;;;12.60;9.45;;;;;;;24.56;41.43;98218.31;5007527;28;20109;-75
2023/05/20 12:05:42;;;;;;;10.52;9.43;;;;;;;24.60;43.90;98227.53;4997431;28;20117;-73
2023/05/20 12:08:08;;;;;;;12.60;9.30;;;;;;;24.06;44.23;98231.28;5002819;28;20117;-74